Mocanaqua, Pennsylvania
Current Conditions -  °F | °C
As of 12:15 PM on Friday 19 Dec 2014 (Local Time) from KHZL Reporting Station
Overcast Overcast  
Wind Chill: 24°   Ceiling: 2200
Heat Index: 32°   Visibility: 10mi
Dew Point: 21°   Wind: 9mph
Humidity: 64%   Direction: 320°NW
Pressure: 30.04"   Gusts: 20mph
Location:  41.1968°N, 76.1956°W
Report Text: KHZL 191715Z AUTO 32008G17KT 10SM OVC022 00/M06 A3004 RMK AO2
Loading
Personal Weather Stations






























Interactive Weather Map New forecast layout! Learn more

10-Day Weather Forecast

Advertisements
Track Severe Weather on mobile